createdAt,value
2022-07-25T00:00:11.305Z,100923.56
2022-07-25T00:02:39.287Z,100918.13
2022-07-25T00:05:08.560Z,100919.00
2022-07-25T00:07:36.816Z,100917.28
2022-07-25T00:10:05.584Z,100909.16
2022-07-25T00:12:33.623Z,100911.00
2022-07-25T00:15:03.043Z,100907.44
2022-07-25T00:17:31.240Z,100906.63
2022-07-25T00:19:59.278Z,100904.75
2022-07-25T00:22:27.311Z,100870.00
2022-07-25T00:24:55.377Z,100905.75
2022-07-25T00:27:23.343Z,100898.50
2022-07-25T00:29:51.446Z,100892.53
2022-07-25T00:32:20.800Z,100896.63
2022-07-25T00:34:48.802Z,100881.69
2022-07-25T00:37:16.877Z,100878.00
2022-07-25T00:39:44.985Z,100887.81
2022-07-25T00:42:13.026Z,100885.41
2022-07-25T00:44:40.998Z,100889.66
2022-07-25T00:47:08.995Z,100882.38
2022-07-25T00:49:38.405Z,100877.84
2022-07-25T00:52:07.363Z,100878.69
2022-07-25T00:54:35.397Z,100887.81
2022-07-25T00:57:03.490Z,100882.69
2022-07-25T00:59:31.481Z,100879.16
2022-07-25T01:02:00.018Z,100879.00
2022-07-25T01:04:32.021Z,100888.97
2022-07-25T01:07:01.458Z,100879.84
2022-07-25T01:09:29.886Z,100872.72
2022-07-25T01:11:57.857Z,100860.22
2022-07-25T01:14:25.923Z,100822.22
2022-07-25T01:16:53.998Z,100838.09
2022-07-25T01:19:21.956Z,100863.75
2022-07-25T01:21:51.437Z,100856.47
2022-07-25T01:24:19.490Z,100862.06
2022-07-25T01:26:47.450Z,100856.66
2022-07-25T01:29:15.404Z,100853.94
2022-07-25T01:31:43.382Z,100850.38
2022-07-25T01:34:11.415Z,100847.69
2022-07-25T01:36:39.491Z,100841.41
2022-07-25T01:39:08.910Z,100840.41
2022-07-25T01:41:37.379Z,100819.00
2022-07-25T01:44:06.273Z,100836.00
2022-07-25T01:46:34.597Z,100834.31
2022-07-25T01:49:02.753Z,100830.75
2022-07-25T01:51:30.844Z,100829.03
2022-07-25T01:53:58.821Z,100824.47
2022-07-25T01:56:29.121Z,100820.78
2022-07-25T01:58:59.963Z,100818.22
2022-07-25T02:01:28.396Z,100818.22
2022-07-25T02:03:56.469Z,100812.78
2022-07-25T02:06:24.551Z,100813.66
2022-07-25T02:08:52.519Z,100806.69
2022-07-25T02:11:20.525Z,100808.38
2022-07-25T02:13:49.866Z,100811.94
2022-07-25T02:16:17.897Z,100807.56
2022-07-25T02:18:46.033Z,100780.00
2022-07-25T02:21:15.839Z,100802.97
2022-07-25T02:23:44.659Z,100801.09
2022-07-25T02:26:12.838Z,100788.59
2022-07-25T02:28:41.553Z,100772.81
2022-07-25T02:31:11.399Z,100794.69
2022-07-25T02:33:39.721Z,100801.97
2022-07-25T02:36:08.601Z,100791.44
2022-07-25T02:38:36.914Z,100756.44
2022-07-25T02:41:06.078Z,100790.28
2022-07-25T02:43:34.095Z,100790.44
2022-07-25T02:46:02.143Z,100791.31
2022-07-25T02:48:31.677Z,100798.41
2022-07-25T02:50:59.721Z,100806.69
2022-07-25T02:53:47.230Z,100795.88
2022-07-25T02:56:15.901Z,100795.00
2022-07-25T02:58:44.401Z,100797.72
2022-07-25T03:01:12.429Z,100796.88
2022-07-25T03:03:42.193Z,100797.72
2022-07-25T03:06:10.309Z,100797.72
2022-07-25T03:08:38.380Z,100798.72
2022-07-25T03:11:07.170Z,100796.00
2022-07-25T03:13:35.290Z,100793.31
2022-07-25T03:16:03.376Z,100800.41
2022-07-25T03:18:31.336Z,100794.16
2022-07-25T03:21:00.767Z,100800.25
2022-07-25T03:23:29.946Z,100767.78
2022-07-25T03:25:58.538Z,100790.44
2022-07-25T03:28:26.746Z,100791.44
2022-07-25T03:30:55.855Z,100776.06
2022-07-25T03:33:23.938Z,100774.22
2022-07-25T03:35:51.910Z,100773.34
2022-07-25T03:38:21.285Z,100771.50
2022-07-25T03:40:49.328Z,100782.47
2022-07-25T03:43:17.483Z,100764.56
2022-07-25T03:45:45.674Z,100781.31
2022-07-25T03:48:13.775Z,100781.16
2022-07-25T03:50:41.854Z,100788.97
2022-07-25T03:53:10.373Z,100782.53
2022-07-25T03:55:40.682Z,100784.25
2022-07-25T03:58:08.744Z,100779.84
2022-07-25T04:00:36.968Z,100771.72
2022-07-25T04:03:05.163Z,100766.16
2022-07-25T04:05:33.145Z,100763.44
2022-07-25T04:08:01.186Z,100752.75
2022-07-25T04:10:29.176Z,100760.88
2022-07-25T04:12:58.594Z,100759.03
2022-07-25T04:15:26.738Z,100737.84
2022-07-25T04:17:55.211Z,100742.78
2022-07-25T04:20:23.409Z,100759.03
2022-07-25T04:22:53.151Z,100749.91
2022-07-25T04:25:21.136Z,100751.75
2022-07-25T04:27:49.152Z,100739.09
2022-07-25T04:30:23.806Z,100733.34
2022-07-25T04:32:52.245Z,100732.50
2022-07-25T04:35:20.214Z,100735.03
2022-07-25T04:37:48.237Z,100742.16
2022-07-25T04:40:16.648Z,100739.13
2022-07-25T04:42:44.626Z,100736.13
2022-07-25T04:45:12.988Z,100742.22
2022-07-25T04:47:42.323Z,100740.00
2022-07-25T04:50:11.249Z,100734.59
2022-07-25T04:52:39.241Z,100745.97
2022-07-25T04:55:08.098Z,100743.94
2022-07-25T04:57:36.125Z,100743.81
2022-07-25T05:00:05.103Z,100730.94
2022-07-25T05:02:33.197Z,100739.06
2022-07-25T05:05:03.182Z,100728.91
2022-07-25T05:07:31.414Z,100723.34
2022-07-25T05:09:59.377Z,100718.75
2022-07-25T05:12:27.414Z,100718.75
2022-07-25T05:14:55.346Z,100702.69
2022-07-25T05:17:23.367Z,100708.78
2022-07-25T05:19:51.365Z,100708.09
2022-07-25T05:22:24.006Z,100698.97
2022-07-25T05:24:56.352Z,100687.78
2022-07-25T05:27:24.579Z,100686.75
2022-07-25T05:29:52.582Z,100693.72
2022-07-25T05:32:20.679Z,100692.03
2022-07-25T05:34:48.648Z,100690.16
2022-07-25T05:37:17.350Z,100700.16
2022-07-25T05:39:46.803Z,100691.00
2022-07-25T05:42:14.773Z,100691.19
2022-07-25T05:44:42.910Z,100687.44
2022-07-25T05:47:11.852Z,100682.88
2022-07-25T05:49:40.093Z,100684.91
2022-07-25T05:52:12.877Z,100674.94
2022-07-25T05:54:41.448Z,100681.53
2022-07-25T05:57:10.831Z,100670.69
2022-07-25T05:59:38.867Z,100664.41
2022-07-25T06:02:06.991Z,100668.97
2022-07-25T06:04:35.287Z,100661.84
2022-07-25T06:07:03.434Z,100667.28
2022-07-25T06:09:32.036Z,100656.44
2022-07-25T06:12:01.312Z,100656.44
2022-07-25T06:14:31.429Z,100579.38
2022-07-25T06:16:59.367Z,100658.16
2022-07-25T06:19:27.422Z,100654.44
2022-07-25T06:21:55.450Z,100639.03
2022-07-25T06:24:23.414Z,100630.91
2022-07-25T06:26:51.520Z,100633.44
2022-07-25T06:29:19.511Z,100633.28
2022-07-25T06:31:49.228Z,100633.63
2022-07-25T06:34:17.298Z,100630.78
2022-07-25T06:36:45.297Z,100614.53
2022-07-25T06:39:13.257Z,100628.75
2022-07-25T06:41:41.226Z,100620.44
2022-07-25T06:44:09.503Z,100630.13
2022-07-25T06:46:37.745Z,100631.66
2022-07-25T06:49:07.419Z,100634.88
2022-07-25T06:51:36.087Z,100630.34
2022-07-25T06:54:04.425Z,100645.25
2022-07-25T06:56:33.116Z,100644.25
2022-07-25T06:59:01.463Z,100655.94
2022-07-25T07:01:30.322Z,100646.63
2022-07-25T07:03:58.413Z,100642.06
2022-07-25T07:06:27.868Z,100641.03
2022-07-25T07:08:56.161Z,100633.22
2022-07-25T07:11:24.431Z,100635.47
2022-07-25T07:13:52.399Z,100633.09
2022-07-25T07:16:20.656Z,100633.78
2022-07-25T07:18:49.545Z,100634.63
2022-07-25T07:21:21.337Z,100626.16
2022-07-25T07:23:53.701Z,100620.44
2022-07-25T07:26:22.128Z,100620.44
2022-07-25T07:28:50.254Z,100588.19
2022-07-25T07:31:19.205Z,100618.38
2022-07-25T07:33:47.536Z,100620.06
2022-07-25T07:36:15.663Z,100620.91
2022-07-25T07:38:44.594Z,100620.25
2022-07-25T07:41:14.131Z,100620.78
2022-07-25T07:43:42.145Z,100613.47
2022-07-25T07:46:10.228Z,100614.31
2022-07-25T07:48:38.922Z,100608.91
2022-07-25T07:51:07.419Z,100609.75
2022-07-25T07:53:52.772Z,100615.16
2022-07-25T07:56:22.341Z,100619.72
2022-07-25T07:58:50.566Z,100619.06
2022-07-25T08:01:18.606Z,100612.63
2022-07-25T08:03:46.663Z,100615.34
2022-07-25T08:06:14.746Z,100619.06
2022-07-25T08:08:42.698Z,100612.78
2022-07-25T08:11:10.730Z,100608.22
2022-07-25T08:13:40.207Z,100610.94
2022-07-25T08:16:08.698Z,100605.84
2022-07-25T08:18:36.812Z,100611.94
2022-07-25T08:21:06.463Z,100614.66
2022-07-25T08:23:35.523Z,100584.97
2022-07-25T08:26:04.116Z,100601.28
2022-07-25T08:28:32.478Z,100575.00
2022-07-25T08:31:01.897Z,100589.91
2022-07-25T08:33:29.962Z,100602.97
2022-07-25T08:35:58.825Z,100610.94
2022-07-25T08:38:29.404Z,100602.81
2022-07-25T08:40:58.165Z,100600.94
2022-07-25T08:43:26.186Z,100605.50
2022-07-25T08:45:56.022Z,100577.06
2022-07-25T08:48:27.735Z,100599.91
2022-07-25T08:50:58.190Z,100604.66
2022-07-25T08:53:34.837Z,100602.97
2022-07-25T08:56:11.187Z,100601.28
2022-07-25T08:58:44.213Z,100581.09
2022-07-25T09:01:12.774Z,100602.28
2022-07-25T09:03:43.149Z,100607.69
2022-07-25T09:06:21.735Z,100590.75
2022-07-25T09:08:54.780Z,100575.19
2022-07-25T09:11:33.818Z,100588.72
2022-07-25T09:14:05.827Z,100585.34
2022-07-25T09:16:39.988Z,100589.25
2022-07-25T09:19:14.670Z,100592.63
2022-07-25T09:21:45.697Z,100595.31
2022-07-25T09:24:17.027Z,100567.88
2022-07-25T09:26:47.220Z,100588.25
2022-07-25T09:29:23.982Z,100582.81
2022-07-25T09:31:52.979Z,100575.50
2022-07-25T09:34:38.947Z,100601.78
2022-07-25T09:37:09.329Z,100597.38
2022-07-25T09:39:45.889Z,100560.06
2022-07-25T09:42:20.473Z,100599.06
2022-07-25T09:45:03.093Z,100590.25
2022-07-25T09:47:31.704Z,100580.59
2022-07-25T09:50:01.545Z,100598.88
2022-07-25T09:52:29.684Z,100596.19
2022-07-25T09:54:57.641Z,100597.03
2022-07-25T09:57:25.981Z,100587.19
2022-07-25T09:59:54.052Z,100554.84
2022-07-25T10:02:34.456Z,100581.97
2022-07-25T10:05:13.722Z,100589.78
2022-07-25T10:07:46.718Z,100571.47
2022-07-25T10:10:30.368Z,100574.84
2022-07-25T10:13:07.839Z,100575.38
2022-07-25T10:15:46.992Z,100579.63
2022-07-25T10:18:16.606Z,100579.44
2022-07-25T10:20:47.293Z,100576.56
2022-07-25T10:23:22.525Z,100573.16
2022-07-25T10:26:05.730Z,100556.56
2022-07-25T10:28:43.642Z,100568.78
2022-07-25T10:31:36.522Z,100580.31
2022-07-25T10:34:06.790Z,100579.13
2022-07-25T10:36:49.274Z,100575.22
2022-07-25T10:39:19.411Z,100584.22
2022-07-25T10:41:53.042Z,100583.03
2022-07-25T10:44:21.231Z,100581.50
2022-07-25T10:46:50.400Z,100591.16
2022-07-25T10:49:29.106Z,100575.06
2022-07-25T10:52:03.730Z,100578.28
2022-07-25T10:54:35.586Z,100586.22
2022-07-25T10:57:05.878Z,100580.81
2022-07-25T10:59:36.257Z,100576.44
2022-07-25T11:02:06.626Z,100564.91
2022-07-25T11:04:35.081Z,100570.47
2022-07-25T11:07:10.881Z,100573.00
2022-07-25T11:09:39.719Z,100575.06
2022-07-25T11:12:08.537Z,100556.78
2022-07-25T11:14:38.044Z,100575.06
2022-07-25T11:17:15.401Z,100564.19
2022-07-25T11:19:44.819Z,100565.91
2022-07-25T11:22:14.374Z,100559.44
2022-07-25T11:24:44.546Z,100560.31
2022-07-25T11:27:15.367Z,100559.28
2022-07-25T11:29:43.401Z,100562.69
2022-07-25T11:32:13.208Z,100545.53
2022-07-25T11:34:43.989Z,100554.34
2022-07-25T11:37:15.137Z,100561.66
2022-07-25T11:39:45.501Z,100556.91
2022-07-25T11:42:16.461Z,100508.97
2022-07-25T11:44:47.992Z,100553.19
2022-07-25T11:47:26.132Z,100538.06
2022-07-25T11:49:55.807Z,100546.06
2022-07-25T11:52:27.880Z,100540.63
2022-07-25T11:54:57.418Z,100540.78
2022-07-25T11:57:26.814Z,100530.78
2022-07-25T11:59:55.506Z,100544.53
2022-07-25T12:02:25.704Z,100548.09
2022-07-25T12:04:59.087Z,100539.13
2022-07-25T12:07:44.643Z,100543.69
2022-07-25T12:10:16.760Z,100536.75
2022-07-25T12:12:50.548Z,100536.75
2022-07-25T12:15:21.498Z,100535.88
2022-07-25T12:17:49.993Z,100535.03
2022-07-25T12:20:20.434Z,100504.06
2022-07-25T12:22:51.433Z,100530.47
2022-07-25T12:25:19.837Z,100524.19
2022-07-25T12:27:48.341Z,100522.50
2022-07-25T12:30:16.849Z,100521.84
2022-07-25T12:32:45.259Z,100511.00
2022-07-25T12:35:15.360Z,100504.88
2022-07-25T12:37:44.412Z,100496.94
2022-07-25T12:40:15.419Z,100492.34
2022-07-25T12:42:44.019Z,100487.78
2022-07-25T12:45:12.919Z,100485.22
2022-07-25T12:47:41.190Z,100484.56
2022-07-25T12:50:09.990Z,100480.34
2022-07-25T12:52:38.902Z,100476.94
2022-07-25T12:55:08.352Z,100473.53
2022-07-25T12:57:38.830Z,100473.72
2022-07-25T13:00:10.379Z,100477.41
2022-07-25T13:02:38.930Z,100470.31
2022-07-25T13:05:08.306Z,100466.56
2022-07-25T13:07:36.415Z,100480.84
2022-07-25T13:10:06.500Z,100479.13
2022-07-25T13:12:34.690Z,100473.53
2022-07-25T13:15:04.163Z,100479.81
2022-07-25T13:17:33.235Z,100454.06
2022-07-25T13:20:01.335Z,100469.28
2022-07-25T13:22:29.322Z,100464.22
2022-07-25T13:24:57.400Z,100455.06
2022-07-25T13:27:25.384Z,100458.78
2022-07-25T13:29:55.128Z,100447.94
2022-07-25T13:32:26.487Z,100449.66
2022-07-25T13:34:54.608Z,100445.41
2022-07-25T13:37:22.624Z,100451.69
2022-07-25T13:39:50.637Z,100436.09
2022-07-25T13:42:18.748Z,100432.53
2022-07-25T13:44:46.737Z,100425.25
2022-07-25T13:47:14.745Z,100423.19
2022-07-25T13:49:44.138Z,100422.19
2022-07-25T13:52:12.178Z,100430.31
2022-07-25T13:54:40.326Z,100409.63
2022-07-25T13:57:09.421Z,100416.78
2022-07-25T13:59:37.512Z,100409.63
2022-07-25T14:02:05.815Z,100411.34
2022-07-25T14:04:34.129Z,100409.50
2022-07-25T14:07:03.543Z,100403.22
2022-07-25T14:09:31.509Z,100398.78
2022-07-25T14:11:59.578Z,100389.00
2022-07-25T14:14:27.542Z,100398.13
2022-07-25T14:16:55.700Z,100401.84
2022-07-25T14:19:24.219Z,100399.13
2022-07-25T14:21:52.352Z,100402.88
2022-07-25T14:24:21.742Z,100391.19
2022-07-25T14:26:50.281Z,100399.31
2022-07-25T14:29:18.400Z,100398.47
2022-07-25T14:31:46.704Z,100396.63
2022-07-25T14:34:15.640Z,100403.91
2022-07-25T14:36:44.631Z,100389.69
2022-07-25T14:39:12.642Z,100388.78
2022-07-25T14:41:42.390Z,100381.53
2022-07-25T14:44:10.434Z,100380.00
2022-07-25T14:46:39.553Z,100380.34
2022-07-25T14:49:08.824Z,100368.16
2022-07-25T14:51:37.018Z,100376.63
2022-07-25T14:54:05.209Z,100375.09
2022-07-25T14:56:33.295Z,100373.25
2022-07-25T14:59:02.934Z,100385.94
2022-07-25T15:01:31.427Z,100366.28
2022-07-25T15:03:59.519Z,100363.56
2022-07-25T15:06:29.290Z,100365.47
2022-07-25T15:08:57.569Z,100354.63
2022-07-25T15:11:26.021Z,100365.47
2022-07-25T15:13:54.152Z,100361.69
2022-07-25T15:16:23.574Z,100370.69
2022-07-25T15:19:15.137Z,100356.28
2022-07-25T15:21:40.016Z,100370.88
2022-07-25T15:24:08.175Z,100361.03
2022-07-25T15:26:36.158Z,100354.63
2022-07-25T15:29:07.339Z,100347.16
2022-07-25T15:31:37.272Z,100367.31
2022-07-25T15:34:05.322Z,100365.59
2022-07-25T15:36:33.288Z,100367.66
2022-07-25T15:39:01.349Z,100362.44
2022-07-25T15:41:29.357Z,100342.41
2022-07-25T15:43:57.379Z,100347.84
2022-07-25T15:46:26.479Z,100357.81
2022-07-25T15:48:57.858Z,100347.84
2022-07-25T15:51:26.005Z,100337.19
2022-07-25T15:53:54.145Z,100328.19
2022-07-25T15:56:22.193Z,100320.59
2022-07-25T15:58:50.714Z,100338.19
2022-07-25T16:01:19.004Z,100328.38
2022-07-25T16:03:47.255Z,100331.09
2022-07-25T16:06:20.690Z,100313.47
2022-07-25T16:08:50.107Z,100322.25
2022-07-25T16:11:25.131Z,100323.31
2022-07-25T16:13:53.795Z,100342.28
2022-07-25T16:16:22.944Z,100332.63
2022-07-25T16:18:51.044Z,100322.63
2022-07-25T16:21:20.377Z,100312.63
2022-07-25T16:23:48.439Z,100320.09
2022-07-25T16:26:16.396Z,100305.69
2022-07-25T16:28:45.413Z,100300.44
2022-07-25T16:31:13.526Z,100295.91
2022-07-25T16:33:41.535Z,100302.31
2022-07-25T16:36:11.699Z,100299.59
2022-07-25T16:38:41.125Z,100285.38
2022-07-25T16:41:09.065Z,100286.41
2022-07-25T16:43:37.406Z,100273.03
2022-07-25T16:46:05.697Z,100275.75
2022-07-25T16:48:33.763Z,100267.78
2022-07-25T16:51:01.736Z,100263.19
2022-07-25T16:53:29.761Z,100265.25
2022-07-25T16:55:59.214Z,100260.69
2022-07-25T16:58:27.250Z,100262.72
2022-07-25T17:00:55.238Z,100257.31
2022-07-25T17:03:23.240Z,100252.03
2022-07-25T17:05:51.810Z,100247.63
2022-07-25T17:08:19.830Z,100242.41
2022-07-25T17:10:47.892Z,100243.41
2022-07-25T17:13:17.211Z,100240.53
2022-07-25T17:15:45.574Z,100242.59
2022-07-25T17:18:14.228Z,100240.03
2022-07-25T17:20:42.277Z,100236.31
2022-07-25T17:23:11.082Z,100228.34
2022-07-25T17:25:40.320Z,100231.25
2022-07-25T17:28:08.805Z,100223.34
2022-07-25T17:30:38.290Z,100235.81
2022-07-25T17:33:06.236Z,100229.75
2022-07-25T17:35:34.258Z,100237.00
2022-07-25T17:38:02.285Z,100229.06
2022-07-25T17:40:30.365Z,100227.91
2022-07-25T17:42:58.773Z,100244.47
2022-07-25T17:45:27.274Z,100242.63
2022-07-25T17:47:56.635Z,100248.19
2022-07-25T17:50:29.151Z,100244.66
2022-07-25T17:53:00.020Z,100251.94
2022-07-25T17:55:28.944Z,100254.66
2022-07-25T17:57:59.569Z,100254.81
2022-07-25T18:00:28.508Z,100256.66
2022-07-25T18:02:57.948Z,100252.09
2022-07-25T18:05:26.181Z,100252.44
2022-07-25T18:07:54.201Z,100239.75
2022-07-25T18:10:22.350Z,100256.66
2022-07-25T18:12:50.972Z,100247.53
2022-07-25T18:15:19.109Z,100241.09
2022-07-25T18:17:48.473Z,100245.47
2022-07-25T18:20:18.287Z,100229.06
2022-07-25T18:22:46.369Z,100229.22
2022-07-25T18:25:15.350Z,100232.78
2022-07-25T18:27:45.152Z,100221.09
2022-07-25T18:30:14.109Z,100211.13
2022-07-25T18:32:42.769Z,100212.97
2022-07-25T18:35:12.055Z,100210.13
2022-07-25T18:37:41.554Z,100219.09
2022-07-25T18:40:10.793Z,100216.53
2022-07-25T18:42:39.486Z,100222.16
2022-07-25T18:45:08.817Z,100221.28
2022-07-25T18:47:37.925Z,100229.56
2022-07-25T18:50:07.019Z,100220.78
2022-07-25T18:52:36.285Z,100228.75
2022-07-25T18:55:07.074Z,100226.19
2022-07-25T18:57:35.895Z,100214.69
2022-07-25T19:00:04.063Z,100221.97
2022-07-25T19:02:32.176Z,100223.84
2022-07-25T19:05:00.232Z,100229.44
2022-07-25T19:07:29.861Z,100228.56
2022-07-25T19:09:57.929Z,100196.81
2022-07-25T19:12:27.447Z,100213.84
2022-07-25T19:14:55.614Z,100214.53
2022-07-25T19:17:24.571Z,100202.84
2022-07-25T19:19:53.551Z,100195.75
2022-07-25T19:22:21.565Z,100147.75
2022-07-25T19:24:49.622Z,100184.25
2022-07-25T19:27:18.035Z,100183.38
2022-07-25T19:29:47.808Z,100177.13
2022-07-25T19:32:16.267Z,100161.91
2022-07-25T19:34:46.465Z,100169.19
2022-07-25T19:37:14.415Z,100147.69
2022-07-25T19:39:42.393Z,100156.00
2022-07-25T19:42:12.293Z,100164.31
2022-07-25T19:44:40.442Z,100159.38
2022-07-25T19:47:11.981Z,100166.31
2022-07-25T19:49:40.736Z,100142.31
2022-07-25T19:52:09.566Z,100147.03
2022-07-25T19:54:37.614Z,100154.16
2022-07-25T19:57:05.842Z,100160.59
2022-07-25T19:59:34.038Z,100151.13
2022-07-25T20:02:02.126Z,100163.63
2022-07-25T20:04:31.758Z,100168.22
2022-07-25T20:07:02.245Z,100163.31
2022-07-25T20:09:30.505Z,100154.38
2022-07-25T20:11:58.772Z,100148.44
2022-07-25T20:14:26.822Z,100147.06
2022-07-25T20:16:54.957Z,100143.69
2022-07-25T20:19:23.043Z,100145.56
2022-07-25T20:21:52.639Z,100121.59
2022-07-25T20:24:21.908Z,100126.47
2022-07-25T20:26:50.293Z,100126.63
2022-07-25T20:29:18.618Z,100126.47
2022-07-25T20:31:46.672Z,100138.16
2022-07-25T20:34:15.128Z,100128.53
2022-07-25T20:36:43.101Z,100125.13
2022-07-25T20:39:13.273Z,100104.19
2022-07-25T20:41:41.287Z,100122.78
2022-07-25T20:44:13.076Z,100121.94
2022-07-25T20:46:41.184Z,100124.78
2022-07-25T20:49:11.038Z,100133.94
2022-07-25T20:51:42.018Z,100105.69
2022-07-25T20:54:10.056Z,100127.03
2022-07-25T20:56:39.424Z,100125.16
2022-07-25T20:59:08.139Z,100118.06
2022-07-25T21:01:37.590Z,100113.84
2022-07-25T21:04:07.772Z,100113.66
2022-07-25T21:06:36.784Z,100114.69
2022-07-25T21:09:05.852Z,100104.00
2022-07-25T21:11:35.585Z,100093.19
2022-07-25T21:14:05.540Z,100100.47
2022-07-25T21:16:34.362Z,100092.53
2022-07-25T21:19:02.544Z,100089.81
2022-07-25T21:21:30.715Z,100088.97
2022-07-25T21:23:58.677Z,100077.47
2022-07-25T21:26:26.679Z,100077.47
2022-07-25T21:28:54.651Z,100092.03
2022-07-25T21:31:24.127Z,100087.66
2022-07-25T21:33:52.327Z,100092.16
2022-07-25T21:36:20.268Z,100082.34
2022-07-25T21:38:48.328Z,100078.84
2022-07-25T21:41:16.472Z,100083.56
2022-07-25T21:43:44.466Z,100053.16
2022-07-25T21:46:12.589Z,100081.88
2022-07-25T21:48:59.790Z,100091.00
2022-07-25T21:51:36.794Z,100090.34
2022-07-25T21:54:09.150Z,100092.38
2022-07-25T21:56:37.398Z,100087.97
2022-07-25T21:59:06.891Z,100090.50
2022-07-25T22:01:35.263Z,100094.91
2022-07-25T22:04:05.889Z,100080.84
2022-07-25T22:06:33.971Z,100079.19
2022-07-25T22:09:01.973Z,100086.13
2022-07-25T22:11:42.643Z,100078.00
2022-07-25T22:14:14.441Z,100075.44
2022-07-25T22:16:42.497Z,100061.91
2022-07-25T22:19:12.035Z,100075.44
2022-07-25T22:21:41.262Z,100072.75
2022-07-25T22:24:09.857Z,100052.13
2022-07-25T22:26:38.069Z,100066.66
2022-07-25T22:29:06.271Z,100063.97
2022-07-25T22:31:34.559Z,100055.84
2022-07-25T22:34:02.626Z,100044.38
2022-07-25T22:36:32.038Z,100051.28
2022-07-25T22:39:00.106Z,100060.41
2022-07-25T22:41:28.147Z,100056.69
2022-07-25T22:43:58.781Z,100039.81
2022-07-25T22:46:28.438Z,100009.25
2022-07-25T22:48:56.701Z,100034.88
2022-07-25T22:51:24.958Z,100023.03
2022-07-25T22:53:54.402Z,100019.34
2022-07-25T22:56:22.474Z,100022.03
2022-07-25T22:58:50.439Z,100007.47
2022-07-25T23:01:18.643Z,100014.59
2022-07-25T23:03:47.386Z,100015.25
2022-07-25T23:06:17.074Z,100012.72
2022-07-25T23:08:45.093Z,100004.75
2022-07-25T23:11:14.488Z,99965.28
2022-07-25T23:13:42.438Z,99997.31
2022-07-25T23:16:10.778Z,99989.03
2022-07-25T23:18:38.906Z,99987.19
2022-07-25T23:21:06.910Z,99991.56
2022-07-25T23:23:34.852Z,99983.44
2022-07-25T23:26:02.923Z,99982.44
2022-07-25T23:28:32.434Z,99980.56
2022-07-25T23:31:00.469Z,99977.88
2022-07-25T23:33:29.560Z,99971.94
2022-07-25T23:35:58.351Z,99964.16
2022-07-25T23:38:26.513Z,99919.63
2022-07-25T23:40:54.934Z,99950.63
2022-07-25T23:43:33.597Z,99939.81
2022-07-25T23:46:12.331Z,99937.09
2022-07-25T23:48:40.368Z,99930.03
2022-07-25T23:51:08.913Z,99942.69
2022-07-25T23:53:37.250Z,99934.75
2022-07-25T23:56:05.810Z,99941.84
2022-07-25T23:58:33.747Z,99941.84
